sensor_id;sensor_type;location;lat;lon;timestamp;P1;durP1;ratioP1;P2;durP2;ratioP2
6547;SDS011;3307;52.416;16.862;2022-11-28T00:01:48;121.90;;;71.80;;
6547;SDS011;3307;52.416;16.862;2022-11-28T00:04:14;131.70;;;72.87;;
6547;SDS011;3307;52.416;16.862;2022-11-28T00:06:40;127.83;;;75.57;;
6547;SDS011;3307;52.416;16.862;2022-11-28T00:09:09;120.18;;;70.55;;
6547;SDS011;3307;52.416;16.862;2022-11-28T00:11:35;132.77;;;74.00;;
6547;SDS011;3307;52.416;16.862;2022-11-28T00:14:00;109.13;;;66.50;;
6547;SDS011;3307;52.416;16.862;2022-11-28T00:16:25;123.63;;;70.33;;
6547;SDS011;3307;52.416;16.862;2022-11-28T00:18:52;125.77;;;73.30;;
6547;SDS011;3307;52.416;16.862;2022-11-28T00:21:18;120.93;;;70.75;;
6547;SDS011;3307;52.416;16.862;2022-11-28T00:23:44;129.82;;;72.35;;
6547;SDS011;3307;52.416;16.862;2022-11-28T00:26:18;133.70;;;75.82;;
6547;SDS011;3307;52.416;16.862;2022-11-28T00:28:45;126.80;;;70.80;;
6547;SDS011;3307;52.416;16.862;2022-11-28T00:31:12;147.33;;;79.00;;
6547;SDS011;3307;52.416;16.862;2022-11-28T00:33:41;132.18;;;76.05;;
6547;SDS011;3307;52.416;16.862;2022-11-28T00:36:07;126.57;;;72.70;;
6547;SDS011;3307;52.416;16.862;2022-11-28T00:38:33;109.37;;;70.70;;
6547;SDS011;3307;52.416;16.862;2022-11-28T00:41:06;119.33;;;72.20;;
6547;SDS011;3307;52.416;16.862;2022-11-28T00:43:42;118.78;;;72.57;;
6547;SDS011;3307;52.416;16.862;2022-11-28T00:46:08;121.68;;;75.38;;
6547;SDS011;3307;52.416;16.862;2022-11-28T00:48:34;132.13;;;72.83;;
6547;SDS011;3307;52.416;16.862;2022-11-28T00:51:07;131.20;;;75.33;;
6547;SDS011;3307;52.416;16.862;2022-11-28T00:53:43;146.82;;;81.20;;
6547;SDS011;3307;52.416;16.862;2022-11-28T00:56:11;131.93;;;76.45;;
6547;SDS011;3307;52.416;16.862;2022-11-28T00:58:38;124.78;;;76.88;;
6547;SDS011;3307;52.416;16.862;2022-11-28T01:01:10;130.38;;;77.22;;
6547;SDS011;3307;52.416;16.862;2022-11-28T01:03:37;125.57;;;74.47;;
6547;SDS011;3307;52.416;16.862;2022-11-28T01:06:03;126.40;;;81.20;;
6547;SDS011;3307;52.416;16.862;2022-11-28T01:08:29;123.07;;;78.38;;
6547;SDS011;3307;52.416;16.862;2022-11-28T01:10:55;132.87;;;79.70;;
6547;SDS011;3307;52.416;16.862;2022-11-28T01:13:20;132.43;;;76.57;;
6547;SDS011;3307;52.416;16.862;2022-11-28T01:15:46;124.47;;;74.17;;
6547;SDS011;3307;52.416;16.862;2022-11-28T01:18:11;135.97;;;79.00;;
6547;SDS011;3307;52.416;16.862;2022-11-28T01:20:36;131.27;;;78.90;;
6547;SDS011;3307;52.416;16.862;2022-11-28T01:23:02;132.77;;;76.37;;
6547;SDS011;3307;52.416;16.862;2022-11-28T01:25:27;137.47;;;81.47;;
6547;SDS011;3307;52.416;16.862;2022-11-28T01:27:53;134.50;;;81.90;;
6547;SDS011;3307;52.416;16.862;2022-11-28T01:30:19;135.27;;;79.17;;
6547;SDS011;3307;52.416;16.862;2022-11-28T01:32:44;130.07;;;79.53;;
6547;SDS011;3307;52.416;16.862;2022-11-28T01:35:10;150.97;;;85.67;;
6547;SDS011;3307;52.416;16.862;2022-11-28T01:37:35;134.60;;;81.90;;
6547;SDS011;3307;52.416;16.862;2022-11-28T01:40:01;142.57;;;87.30;;
6547;SDS011;3307;52.416;16.862;2022-11-28T01:42:27;140.70;;;82.65;;
6547;SDS011;3307;52.416;16.862;2022-11-28T01:47:22;126.30;;;77.43;;
6547;SDS011;3307;52.416;16.862;2022-11-28T01:49:50;134.57;;;78.47;;
6547;SDS011;3307;52.416;16.862;2022-11-28T01:52:17;134.03;;;78.37;;
6547;SDS011;3307;52.416;16.862;2022-11-28T01:54:45;138.10;;;78.95;;
6547;SDS011;3307;52.416;16.862;2022-11-28T01:57:17;133.77;;;83.38;;
6547;SDS011;3307;52.416;16.862;2022-11-28T01:59:50;130.55;;;79.45;;
6547;SDS011;3307;52.416;16.862;2022-11-28T02:02:24;122.03;;;75.88;;
6547;SDS011;3307;52.416;16.862;2022-11-28T02:04:53;122.10;;;75.45;;
6547;SDS011;3307;52.416;16.862;2022-11-28T02:07:18;121.30;;;72.17;;
6547;SDS011;3307;52.416;16.862;2022-11-28T02:09:44;123.67;;;73.37;;
6547;SDS011;3307;52.416;16.862;2022-11-28T02:18:00;125.68;;;73.78;;
6547;SDS011;3307;52.416;16.862;2022-11-28T02:23:55;110.75;;;70.32;;
6547;SDS011;3307;52.416;16.862;2022-11-28T02:32:20;111.90;;;70.93;;
6547;SDS011;3307;52.416;16.862;2022-11-28T02:37:44;115.50;;;67.13;;
6547;SDS011;3307;52.416;16.862;2022-11-28T02:40:31;110.40;;;64.07;;
6547;SDS011;3307;52.416;16.862;2022-11-28T02:43:09;109.10;;;64.90;;
6547;SDS011;3307;52.416;16.862;2022-11-28T02:53:48;107.68;;;68.75;;
6547;SDS011;3307;52.416;16.862;2022-11-28T02:56:15;102.28;;;64.40;;
6547;SDS011;3307;52.416;16.862;2022-11-28T02:58:40;101.53;;;62.27;;
6547;SDS011;3307;52.416;16.862;2022-11-28T03:01:08;101.60;;;64.20;;
6547;SDS011;3307;52.416;16.862;2022-11-28T03:03:47;108.45;;;66.45;;
6547;SDS011;3307;52.416;16.862;2022-11-28T03:17:32;86.68;;;57.75;;
6547;SDS011;3307;52.416;16.862;2022-11-28T03:20:20;76.63;;;56.78;;
6547;SDS011;3307;52.416;16.862;2022-11-28T03:22:51;87.57;;;56.53;;
6547;SDS011;3307;52.416;16.862;2022-11-28T03:25:42;86.47;;;53.75;;
6547;SDS011;3307;52.416;16.862;2022-11-28T03:28:11;84.30;;;54.13;;
6547;SDS011;3307;52.416;16.862;2022-11-28T03:30:46;102.00;;;56.60;;
6547;SDS011;3307;52.416;16.862;2022-11-28T03:33:14;83.15;;;56.05;;
6547;SDS011;3307;52.416;16.862;2022-11-28T03:35:51;87.43;;;55.28;;
6547;SDS011;3307;52.416;16.862;2022-11-28T03:38:21;90.15;;;55.25;;
6547;SDS011;3307;52.416;16.862;2022-11-28T03:40:51;83.03;;;56.00;;
6547;SDS011;3307;52.416;16.862;2022-11-28T03:43:19;88.20;;;56.38;;
6547;SDS011;3307;52.416;16.862;2022-11-28T03:45:48;83.43;;;55.00;;
6547;SDS011;3307;52.416;16.862;2022-11-28T03:48:18;79.55;;;54.08;;
6547;SDS011;3307;52.416;16.862;2022-11-28T03:50:47;88.20;;;55.55;;
6547;SDS011;3307;52.416;16.862;2022-11-28T03:53:22;77.00;;;53.15;;
6547;SDS011;3307;52.416;16.862;2022-11-28T03:55:51;85.57;;;56.72;;
6547;SDS011;3307;52.416;16.862;2022-11-28T04:03:27;78.43;;;52.17;;
6547;SDS011;3307;52.416;16.862;2022-11-28T04:06:10;88.40;;;54.80;;
6547;SDS011;3307;52.416;16.862;2022-11-28T04:08:45;78.63;;;53.63;;
6547;SDS011;3307;52.416;16.862;2022-11-28T04:16:46;76.82;;;52.80;;
6547;SDS011;3307;52.416;16.862;2022-11-28T04:19:15;75.93;;;51.33;;
6547;SDS011;3307;52.416;16.862;2022-11-28T04:22:29;77.38;;;52.95;;
6547;SDS011;3307;52.416;16.862;2022-11-28T04:24:50;77.57;;;51.33;;
6547;SDS011;3307;52.416;16.862;2022-11-28T04:27:18;74.85;;;49.22;;
6547;SDS011;3307;52.416;16.862;2022-11-28T04:29:48;75.25;;;47.95;;
6547;SDS011;3307;52.416;16.862;2022-11-28T04:32:16;72.10;;;49.92;;
6547;SDS011;3307;52.416;16.862;2022-11-28T04:34:44;76.68;;;49.63;;
6547;SDS011;3307;52.416;16.862;2022-11-28T04:37:13;73.80;;;51.17;;
6547;SDS011;3307;52.416;16.862;2022-11-28T04:39:41;67.30;;;49.97;;
6547;SDS011;3307;52.416;16.862;2022-11-28T04:42:12;73.50;;;49.72;;
6547;SDS011;3307;52.416;16.862;2022-11-28T04:45:01;90.10;;;62.38;;
6547;SDS011;3307;52.416;16.862;2022-11-28T04:47:32;93.13;;;58.63;;
6547;SDS011;3307;52.416;16.862;2022-11-28T04:49:57;66.97;;;48.47;;
6547;SDS011;3307;52.416;16.862;2022-11-28T04:57:53;77.07;;;53.55;;
6547;SDS011;3307;52.416;16.862;2022-11-28T05:00:23;76.45;;;52.05;;
6547;SDS011;3307;52.416;16.862;2022-11-28T05:02:49;74.03;;;51.87;;
6547;SDS011;3307;52.416;16.862;2022-11-28T05:05:18;75.63;;;50.05;;
6547;SDS011;3307;52.416;16.862;2022-11-28T05:07:45;66.80;;;47.33;;
6547;SDS011;3307;52.416;16.862;2022-11-28T05:10:11;57.63;;;42.87;;
6547;SDS011;3307;52.416;16.862;2022-11-28T05:12:37;65.63;;;44.55;;
6547;SDS011;3307;52.416;16.862;2022-11-28T05:15:03;60.37;;;44.97;;
6547;SDS011;3307;52.416;16.862;2022-11-28T05:17:29;115.00;;;74.25;;
6547;SDS011;3307;52.416;16.862;2022-11-28T05:19:54;94.50;;;63.23;;
6547;SDS011;3307;52.416;16.862;2022-11-28T05:22:20;77.20;;;58.17;;
6547;SDS011;3307;52.416;16.862;2022-11-28T05:24:45;87.50;;;61.67;;
6547;SDS011;3307;52.416;16.862;2022-11-28T05:27:11;72.77;;;52.40;;
6547;SDS011;3307;52.416;16.862;2022-11-28T05:29:36;62.23;;;46.90;;
6547;SDS011;3307;52.416;16.862;2022-11-28T05:32:02;54.70;;;42.77;;
6547;SDS011;3307;52.416;16.862;2022-11-28T05:34:28;58.72;;;39.60;;
6547;SDS011;3307;52.416;16.862;2022-11-28T05:36:55;65.22;;;45.47;;
6547;SDS011;3307;52.416;16.862;2022-11-28T05:39:21;80.03;;;53.90;;
6547;SDS011;3307;52.416;16.862;2022-11-28T05:41:46;97.13;;;65.07;;
6547;SDS011;3307;52.416;16.862;2022-11-28T05:44:12;105.80;;;66.37;;
6547;SDS011;3307;52.416;16.862;2022-11-28T05:46:37;88.67;;;60.77;;
6547;SDS011;3307;52.416;16.862;2022-11-28T05:49:03;80.40;;;56.33;;
6547;SDS011;3307;52.416;16.862;2022-11-28T05:51:28;63.50;;;45.97;;
6547;SDS011;3307;52.416;16.862;2022-11-28T05:53:53;53.80;;;41.27;;
6547;SDS011;3307;52.416;16.862;2022-11-28T05:56:19;107.57;;;71.80;;
6547;SDS011;3307;52.416;16.862;2022-11-28T05:58:47;191.27;;;115.55;;
6547;SDS011;3307;52.416;16.862;2022-11-28T06:01:19;113.27;;;74.30;;
6547;SDS011;3307;52.416;16.862;2022-11-28T06:03:46;158.57;;;97.22;;
6547;SDS011;3307;52.416;16.862;2022-11-28T06:06:13;67.17;;;48.80;;
6547;SDS011;3307;52.416;16.862;2022-11-28T06:08:43;60.08;;;41.80;;
6547;SDS011;3307;52.416;16.862;2022-11-28T06:11:09;53.27;;;36.57;;
6547;SDS011;3307;52.416;16.862;2022-11-28T06:13:35;55.97;;;39.20;;
6547;SDS011;3307;52.416;16.862;2022-11-28T06:16:00;54.10;;;38.07;;
6547;SDS011;3307;52.416;16.862;2022-11-28T06:18:26;52.87;;;37.87;;
6547;SDS011;3307;52.416;16.862;2022-11-28T06:20:51;61.00;;;39.17;;
6547;SDS011;3307;52.416;16.862;2022-11-28T06:23:17;49.57;;;35.50;;
6547;SDS011;3307;52.416;16.862;2022-11-28T06:25:42;49.60;;;35.13;;
6547;SDS011;3307;52.416;16.862;2022-11-28T06:28:07;52.47;;;36.10;;
6547;SDS011;3307;52.416;16.862;2022-11-28T06:30:33;52.70;;;36.53;;
6547;SDS011;3307;52.416;16.862;2022-11-28T06:32:58;47.10;;;35.10;;
6547;SDS011;3307;52.416;16.862;2022-11-28T06:35:23;51.13;;;38.10;;
6547;SDS011;3307;52.416;16.862;2022-11-28T06:37:49;96.50;;;65.43;;
6547;SDS011;3307;52.416;16.862;2022-11-28T06:40:14;127.27;;;83.33;;
6547;SDS011;3307;52.416;16.862;2022-11-28T06:42:40;121.93;;;83.33;;
6547;SDS011;3307;52.416;16.862;2022-11-28T06:45:05;58.53;;;40.67;;
6547;SDS011;3307;52.416;16.862;2022-11-28T06:47:31;47.57;;;35.10;;
6547;SDS011;3307;52.416;16.862;2022-11-28T06:49:57;97.93;;;62.80;;
6547;SDS011;3307;52.416;16.862;2022-11-28T06:52:22;107.73;;;66.53;;
6547;SDS011;3307;52.416;16.862;2022-11-28T06:54:48;91.80;;;59.33;;
6547;SDS011;3307;52.416;16.862;2022-11-28T06:57:13;78.53;;;58.10;;
6547;SDS011;3307;52.416;16.862;2022-11-28T06:59:39;64.20;;;48.10;;
6547;SDS011;3307;52.416;16.862;2022-11-28T07:02:04;48.77;;;33.57;;
6547;SDS011;3307;52.416;16.862;2022-11-28T07:04:30;42.60;;;30.50;;
6547;SDS011;3307;52.416;16.862;2022-11-28T07:06:56;46.37;;;32.40;;
6547;SDS011;3307;52.416;16.862;2022-11-28T07:09:21;43.77;;;31.20;;
6547;SDS011;3307;52.416;16.862;2022-11-28T07:11:46;40.63;;;29.53;;
6547;SDS011;3307;52.416;16.862;2022-11-28T07:14:12;44.33;;;31.37;;
6547;SDS011;3307;52.416;16.862;2022-11-28T07:16:37;41.87;;;29.07;;
6547;SDS011;3307;52.416;16.862;2022-11-28T07:19:03;43.40;;;31.00;;
6547;SDS011;3307;52.416;16.862;2022-11-28T07:21:28;41.03;;;30.80;;
6547;SDS011;3307;52.416;16.862;2022-11-28T07:23:54;43.30;;;31.87;;
6547;SDS011;3307;52.416;16.862;2022-11-28T07:26:22;43.25;;;31.42;;
6547;SDS011;3307;52.416;16.862;2022-11-28T07:28:47;49.70;;;38.50;;
6547;SDS011;3307;52.416;16.862;2022-11-28T07:31:18;70.32;;;53.38;;
6547;SDS011;3307;52.416;16.862;2022-11-28T07:33:45;52.15;;;39.53;;
6547;SDS011;3307;52.416;16.862;2022-11-28T07:36:13;43.28;;;36.35;;
6547;SDS011;3307;52.416;16.862;2022-11-28T07:38:47;41.55;;;30.85;;
6547;SDS011;3307;52.416;16.862;2022-11-28T07:41:17;43.45;;;29.00;;
6547;SDS011;3307;52.416;16.862;2022-11-28T07:43:43;41.87;;;29.37;;
6547;SDS011;3307;52.416;16.862;2022-11-28T07:46:11;41.90;;;31.00;;
6547;SDS011;3307;52.416;16.862;2022-11-28T07:48:38;40.22;;;29.75;;
6547;SDS011;3307;52.416;16.862;2022-11-28T07:51:05;54.13;;;36.07;;
6547;SDS011;3307;52.416;16.862;2022-11-28T07:53:31;60.53;;;44.92;;
6547;SDS011;3307;52.416;16.862;2022-11-28T07:56:03;44.70;;;30.83;;
6547;SDS011;3307;52.416;16.862;2022-11-28T07:58:30;38.42;;;29.67;;
6547;SDS011;3307;52.416;16.862;2022-11-28T08:00:55;40.70;;;27.20;;
6547;SDS011;3307;52.416;16.862;2022-11-28T08:03:21;41.27;;;28.93;;
6547;SDS011;3307;52.416;16.862;2022-11-28T08:05:47;37.47;;;27.87;;
6547;SDS011;3307;52.416;16.862;2022-11-28T08:08:16;35.25;;;26.88;;
6547;SDS011;3307;52.416;16.862;2022-11-28T08:10:42;34.42;;;27.10;;
6547;SDS011;3307;52.416;16.862;2022-11-28T08:13:09;37.63;;;29.25;;
6547;SDS011;3307;52.416;16.862;2022-11-28T08:15:35;42.85;;;29.33;;
6547;SDS011;3307;52.416;16.862;2022-11-28T08:18:01;35.28;;;27.33;;
6547;SDS011;3307;52.416;16.862;2022-11-28T08:20:27;40.47;;;27.70;;
6547;SDS011;3307;52.416;16.862;2022-11-28T08:22:52;39.23;;;27.90;;
6547;SDS011;3307;52.416;16.862;2022-11-28T08:25:18;41.60;;;27.40;;
6547;SDS011;3307;52.416;16.862;2022-11-28T08:27:43;38.43;;;26.43;;
6547;SDS011;3307;52.416;16.862;2022-11-28T08:30:09;37.00;;;26.57;;
6547;SDS011;3307;52.416;16.862;2022-11-28T08:32:34;38.43;;;27.47;;
6547;SDS011;3307;52.416;16.862;2022-11-28T08:34:59;35.30;;;26.00;;
6547;SDS011;3307;52.416;16.862;2022-11-28T08:37:26;38.63;;;27.73;;
6547;SDS011;3307;52.416;16.862;2022-11-28T08:39:52;36.58;;;27.00;;
6547;SDS011;3307;52.416;16.862;2022-11-28T08:42:17;37.23;;;26.10;;
6547;SDS011;3307;52.416;16.862;2022-11-28T08:44:43;37.63;;;28.03;;
6547;SDS011;3307;52.416;16.862;2022-11-28T08:47:08;41.80;;;28.90;;
6547;SDS011;3307;52.416;16.862;2022-11-28T08:49:35;35.67;;;25.80;;
6547;SDS011;3307;52.416;16.862;2022-11-28T08:52:01;42.95;;;25.85;;
6547;SDS011;3307;52.416;16.862;2022-11-28T08:54:27;36.17;;;27.80;;
6547;SDS011;3307;52.416;16.862;2022-11-28T08:56:53;40.30;;;27.83;;
6547;SDS011;3307;52.416;16.862;2022-11-28T08:59:18;40.50;;;28.70;;
6547;SDS011;3307;52.416;16.862;2022-11-28T09:01:43;40.20;;;29.93;;
6547;SDS011;3307;52.416;16.862;2022-11-28T09:04:09;39.63;;;28.40;;
6547;SDS011;3307;52.416;16.862;2022-11-28T09:06:36;38.73;;;29.33;;
6547;SDS011;3307;52.416;16.862;2022-11-28T09:09:02;36.20;;;27.73;;
6547;SDS011;3307;52.416;16.862;2022-11-28T09:11:28;35.80;;;28.13;;
6547;SDS011;3307;52.416;16.862;2022-11-28T09:13:53;38.23;;;28.00;;
6547;SDS011;3307;52.416;16.862;2022-11-28T09:16:19;32.50;;;26.67;;
6547;SDS011;3307;52.416;16.862;2022-11-28T09:18:45;35.57;;;26.20;;
6547;SDS011;3307;52.416;16.862;2022-11-28T09:21:12;34.03;;;26.73;;
6547;SDS011;3307;52.416;16.862;2022-11-28T09:23:38;36.53;;;27.08;;
6547;SDS011;3307;52.416;16.862;2022-11-28T09:26:08;33.50;;;27.20;;
6547;SDS011;3307;52.416;16.862;2022-11-28T09:28:35;37.35;;;26.52;;
6547;SDS011;3307;52.416;16.862;2022-11-28T09:31:01;34.77;;;26.60;;
6547;SDS011;3307;52.416;16.862;2022-11-28T09:33:28;38.45;;;25.77;;
6547;SDS011;3307;52.416;16.862;2022-11-28T09:35:53;34.47;;;27.43;;
6547;SDS011;3307;52.416;16.862;2022-11-28T09:38:19;36.60;;;27.70;;
6547;SDS011;3307;52.416;16.862;2022-11-28T09:40:46;39.67;;;28.15;;
6547;SDS011;3307;52.416;16.862;2022-11-28T09:43:15;38.90;;;28.03;;
6547;SDS011;3307;52.416;16.862;2022-11-28T09:46:04;35.80;;;27.15;;
6547;SDS011;3307;52.416;16.862;2022-11-28T09:48:36;41.40;;;27.45;;
6547;SDS011;3307;52.416;16.862;2022-11-28T09:54:18;35.75;;;26.52;;
6547;SDS011;3307;52.416;16.862;2022-11-28T09:56:53;41.17;;;28.27;;
6547;SDS011;3307;52.416;16.862;2022-11-28T09:59:24;36.03;;;28.05;;
6547;SDS011;3307;52.416;16.862;2022-11-28T10:04:23;39.97;;;28.20;;
6547;SDS011;3307;52.416;16.862;2022-11-28T10:15:39;38.40;;;26.38;;
6547;SDS011;3307;52.416;16.862;2022-11-28T10:20:53;36.25;;;27.30;;
6547;SDS011;3307;52.416;16.862;2022-11-28T10:23:36;32.00;;;26.30;;
6547;SDS011;3307;52.416;16.862;2022-11-28T10:26:06;36.78;;;28.52;;
6547;SDS011;3307;52.416;16.862;2022-11-28T10:28:34;36.53;;;26.70;;
6547;SDS011;3307;52.416;16.862;2022-11-28T10:31:05;35.03;;;27.58;;
6547;SDS011;3307;52.416;16.862;2022-11-28T10:34:23;37.15;;;28.00;;
6547;SDS011;3307;52.416;16.862;2022-11-28T10:36:49;35.65;;;28.92;;
6547;SDS011;3307;52.416;16.862;2022-11-28T10:39:15;31.50;;;25.35;;
6547;SDS011;3307;52.416;16.862;2022-11-28T10:50:11;37.30;;;27.57;;
6547;SDS011;3307;52.416;16.862;2022-11-28T10:52:45;38.80;;;29.92;;
6547;SDS011;3307;52.416;16.862;2022-11-28T11:00:41;42.15;;;27.95;;
6547;SDS011;3307;52.416;16.862;2022-11-28T11:03:09;38.80;;;28.90;;
6547;SDS011;3307;52.416;16.862;2022-11-28T11:05:36;36.35;;;28.10;;
6547;SDS011;3307;52.416;16.862;2022-11-28T11:11:05;37.17;;;28.40;;
6547;SDS011;3307;52.416;16.862;2022-11-28T11:14:01;33.90;;;27.63;;
6547;SDS011;3307;52.416;16.862;2022-11-28T11:16:44;34.38;;;28.63;;
6547;SDS011;3307;52.416;16.862;2022-11-28T11:19:17;37.75;;;30.50;;
6547;SDS011;3307;52.416;16.862;2022-11-28T11:22:02;36.55;;;26.67;;
6547;SDS011;3307;52.416;16.862;2022-11-28T11:24:28;33.83;;;26.73;;
6547;SDS011;3307;52.416;16.862;2022-11-28T11:26:54;39.50;;;29.00;;
6547;SDS011;3307;52.416;16.862;2022-11-28T11:29:32;39.80;;;28.65;;
6547;SDS011;3307;52.416;16.862;2022-11-28T11:31:59;34.90;;;27.50;;
6547;SDS011;3307;52.416;16.862;2022-11-28T11:34:31;37.58;;;28.75;;
6547;SDS011;3307;52.416;16.862;2022-11-28T11:39:48;36.63;;;27.33;;
6547;SDS011;3307;52.416;16.862;2022-11-28T11:42:19;37.83;;;27.35;;
6547;SDS011;3307;52.416;16.862;2022-11-28T11:44:49;35.75;;;27.00;;
6547;SDS011;3307;52.416;16.862;2022-11-28T11:47:15;37.50;;;28.17;;
6547;SDS011;3307;52.416;16.862;2022-11-28T11:49:41;37.13;;;28.13;;
6547;SDS011;3307;52.416;16.862;2022-11-28T11:54:37;37.17;;;28.40;;
6547;SDS011;3307;52.416;16.862;2022-11-28T11:57:04;39.38;;;28.52;;
6547;SDS011;3307;52.416;16.862;2022-11-28T12:02:20;34.30;;;25.90;;
6547;SDS011;3307;52.416;16.862;2022-11-28T12:04:50;39.80;;;28.85;;
6547;SDS011;3307;52.416;16.862;2022-11-28T12:07:44;38.30;;;28.52;;
6547;SDS011;3307;52.416;16.862;2022-11-28T12:10:11;28.45;;;24.98;;
6547;SDS011;3307;52.416;16.862;2022-11-28T12:12:40;31.00;;;26.10;;
6547;SDS011;3307;52.416;16.862;2022-11-28T12:20:32;32.33;;;25.60;;
6547;SDS011;3307;52.416;16.862;2022-11-28T12:23:53;29.05;;;26.00;;
6547;SDS011;3307;52.416;16.862;2022-11-28T12:40:26;30.03;;;26.83;;
6547;SDS011;3307;52.416;16.862;2022-11-28T12:50:40;30.60;;;27.10;;
6547;SDS011;3307;52.416;16.862;2022-11-28T12:59:06;27.67;;;24.77;;
6547;SDS011;3307;52.416;16.862;2022-11-28T13:01:59;29.13;;;24.73;;
6547;SDS011;3307;52.416;16.862;2022-11-28T13:04:39;28.30;;;25.20;;
6547;SDS011;3307;52.416;16.862;2022-11-28T13:07:24;27.00;;;24.13;;
6547;SDS011;3307;52.416;16.862;2022-11-28T13:10:11;28.10;;;25.08;;
6547;SDS011;3307;52.416;16.862;2022-11-28T13:13:01;29.65;;;24.90;;
6547;SDS011;3307;52.416;16.862;2022-11-28T13:18:36;30.25;;;26.15;;
6547;SDS011;3307;52.416;16.862;2022-11-28T13:23:42;33.17;;;29.58;;
6547;SDS011;3307;52.416;16.862;2022-11-28T13:31:34;37.30;;;31.73;;
6547;SDS011;3307;52.416;16.862;2022-11-28T13:34:07;37.25;;;29.40;;
6547;SDS011;3307;52.416;16.862;2022-11-28T13:39:47;33.05;;;27.23;;
6547;SDS011;3307;52.416;16.862;2022-11-28T13:44:59;32.25;;;26.27;;
6547;SDS011;3307;52.416;16.862;2022-11-28T13:47:27;34.22;;;24.95;;
6547;SDS011;3307;52.416;16.862;2022-11-28T13:50:30;34.92;;;28.70;;
6547;SDS011;3307;52.416;16.862;2022-11-28T14:01:00;41.15;;;30.23;;
6547;SDS011;3307;52.416;16.862;2022-11-28T14:03:26;39.50;;;30.40;;
6547;SDS011;3307;52.416;16.862;2022-11-28T14:05:58;37.72;;;30.02;;
6547;SDS011;3307;52.416;16.862;2022-11-28T14:08:36;37.30;;;27.17;;
6547;SDS011;3307;52.416;16.862;2022-11-28T14:13:49;38.38;;;30.15;;
6547;SDS011;3307;52.416;16.862;2022-11-28T14:16:26;39.50;;;28.48;;
6547;SDS011;3307;52.416;16.862;2022-11-28T14:27:00;30.20;;;24.38;;
6547;SDS011;3307;52.416;16.862;2022-11-28T14:29:33;28.88;;;23.63;;
6547;SDS011;3307;52.416;16.862;2022-11-28T14:32:01;35.65;;;25.58;;
6547;SDS011;3307;52.416;16.862;2022-11-28T14:34:41;30.90;;;24.20;;
6547;SDS011;3307;52.416;16.862;2022-11-28T14:39:43;35.25;;;27.20;;
6547;SDS011;3307;52.416;16.862;2022-11-28T14:44:45;34.55;;;25.48;;
6547;SDS011;3307;52.416;16.862;2022-11-28T14:52:31;38.50;;;31.63;;
6547;SDS011;3307;52.416;16.862;2022-11-28T14:54:58;38.25;;;30.70;;
6547;SDS011;3307;52.416;16.862;2022-11-28T14:57:28;41.25;;;28.98;;
6547;SDS011;3307;52.416;16.862;2022-11-28T14:59:57;44.30;;;29.75;;
6547;SDS011;3307;52.416;16.862;2022-11-28T15:05:27;44.75;;;31.13;;
6547;SDS011;3307;52.416;16.862;2022-11-28T15:08:23;40.97;;;29.55;;
6547;SDS011;3307;52.416;16.862;2022-11-28T15:14:20;39.55;;;28.13;;
6547;SDS011;3307;52.416;16.862;2022-11-28T15:16:47;38.28;;;28.35;;
6547;SDS011;3307;52.416;16.862;2022-11-28T15:19:15;37.75;;;30.55;;
6547;SDS011;3307;52.416;16.862;2022-11-28T15:21:47;42.60;;;30.55;;
6547;SDS011;3307;52.416;16.862;2022-11-28T15:24:30;45.90;;;31.98;;
6547;SDS011;3307;52.416;16.862;2022-11-28T15:29:32;40.38;;;29.83;;
6547;SDS011;3307;52.416;16.862;2022-11-28T15:31:58;41.50;;;29.88;;
6547;SDS011;3307;52.416;16.862;2022-11-28T15:34:33;39.13;;;30.57;;
6547;SDS011;3307;52.416;16.862;2022-11-28T15:37:33;42.97;;;30.45;;
6547;SDS011;3307;52.416;16.862;2022-11-28T15:39:57;45.72;;;29.88;;
6547;SDS011;3307;52.416;16.862;2022-11-28T15:42:28;43.80;;;30.63;;
6547;SDS011;3307;52.416;16.862;2022-11-28T15:44:55;40.45;;;27.95;;
6547;SDS011;3307;52.416;16.862;2022-11-28T15:47:23;38.92;;;30.17;;
6547;SDS011;3307;52.416;16.862;2022-11-28T15:55:18;41.47;;;30.00;;
6547;SDS011;3307;52.416;16.862;2022-11-28T15:57:44;41.53;;;31.20;;
6547;SDS011;3307;52.416;16.862;2022-11-28T16:00:19;46.70;;;32.70;;
6547;SDS011;3307;52.416;16.862;2022-11-28T16:02:46;43.67;;;31.58;;
6547;SDS011;3307;52.416;16.862;2022-11-28T16:05:13;46.33;;;32.42;;
6547;SDS011;3307;52.416;16.862;2022-11-28T16:07:44;43.08;;;33.60;;
6547;SDS011;3307;52.416;16.862;2022-11-28T16:10:24;46.53;;;33.50;;
6547;SDS011;3307;52.416;16.862;2022-11-28T16:12:54;44.78;;;33.67;;
6547;SDS011;3307;52.416;16.862;2022-11-28T16:15:23;48.25;;;33.83;;
6547;SDS011;3307;52.416;16.862;2022-11-28T16:17:52;50.50;;;34.17;;
6547;SDS011;3307;52.416;16.862;2022-11-28T16:20:26;51.25;;;35.10;;
6547;SDS011;3307;52.416;16.862;2022-11-28T16:22:56;46.75;;;34.22;;
6547;SDS011;3307;52.416;16.862;2022-11-28T16:25:28;48.63;;;33.67;;
6547;SDS011;3307;52.416;16.862;2022-11-28T16:27:57;44.60;;;33.65;;
6547;SDS011;3307;52.416;16.862;2022-11-28T16:30:36;52.13;;;36.27;;
6547;SDS011;3307;52.416;16.862;2022-11-28T16:33:32;51.38;;;35.03;;
6547;SDS011;3307;52.416;16.862;2022-11-28T16:38:50;50.22;;;35.55;;
6547;SDS011;3307;52.416;16.862;2022-11-28T16:41:21;47.17;;;34.35;;
6547;SDS011;3307;52.416;16.862;2022-11-28T16:43:51;44.15;;;33.55;;
6547;SDS011;3307;52.416;16.862;2022-11-28T16:46:20;45.60;;;34.25;;
6547;SDS011;3307;52.416;16.862;2022-11-28T16:48:56;46.50;;;35.13;;
6547;SDS011;3307;52.416;16.862;2022-11-28T16:51:27;50.45;;;34.15;;
6547;SDS011;3307;52.416;16.862;2022-11-28T16:53:56;45.17;;;35.00;;
6547;SDS011;3307;52.416;16.862;2022-11-28T17:01:39;49.00;;;34.08;;
6547;SDS011;3307;52.416;16.862;2022-11-28T17:04:05;46.90;;;34.63;;
6547;SDS011;3307;52.416;16.862;2022-11-28T17:06:34;47.55;;;34.08;;
6547;SDS011;3307;52.416;16.862;2022-11-28T17:09:03;50.50;;;34.17;;
6547;SDS011;3307;52.416;16.862;2022-11-28T17:11:32;48.72;;;35.78;;
6547;SDS011;3307;52.416;16.862;2022-11-28T17:13:59;43.38;;;32.15;;
6547;SDS011;3307;52.416;16.862;2022-11-28T17:16:25;42.95;;;33.60;;
6547;SDS011;3307;52.416;16.862;2022-11-28T17:18:51;43.87;;;32.57;;
6547;SDS011;3307;52.416;16.862;2022-11-28T17:21:17;45.35;;;31.75;;
6547;SDS011;3307;52.416;16.862;2022-11-28T17:24:01;48.20;;;33.17;;
6547;SDS011;3307;52.416;16.862;2022-11-28T17:26:26;43.03;;;32.70;;
6547;SDS011;3307;52.416;16.862;2022-11-28T17:28:52;44.77;;;31.47;;
6547;SDS011;3307;52.416;16.862;2022-11-28T17:31:17;43.37;;;33.77;;
6547;SDS011;3307;52.416;16.862;2022-11-28T17:33:43;45.33;;;32.53;;
6547;SDS011;3307;52.416;16.862;2022-11-28T17:36:11;42.00;;;30.50;;
6547;SDS011;3307;52.416;16.862;2022-11-28T17:38:37;43.13;;;31.15;;
6547;SDS011;3307;52.416;16.862;2022-11-28T17:41:03;39.80;;;30.80;;
6547;SDS011;3307;52.416;16.862;2022-11-28T17:43:29;44.72;;;32.15;;
6547;SDS011;3307;52.416;16.862;2022-11-28T17:45:55;40.17;;;31.55;;
6547;SDS011;3307;52.416;16.862;2022-11-28T17:48:21;41.77;;;30.00;;
6547;SDS011;3307;52.416;16.862;2022-11-28T17:50:47;45.27;;;29.90;;
6547;SDS011;3307;52.416;16.862;2022-11-28T17:53:17;42.28;;;31.05;;
6547;SDS011;3307;52.416;16.862;2022-11-28T17:55:44;42.00;;;31.13;;
6547;SDS011;3307;52.416;16.862;2022-11-28T17:58:21;37.90;;;29.63;;
6547;SDS011;3307;52.416;16.862;2022-11-28T18:00:50;38.90;;;30.70;;
6547;SDS011;3307;52.416;16.862;2022-11-28T18:03:16;41.97;;;30.50;;
6547;SDS011;3307;52.416;16.862;2022-11-28T18:05:43;37.67;;;29.63;;